sensor_id;sensor_type;location;lat;lon;timestamp;temperature;humidity
18067;DHT22;9158;51.528;7.192;2022-12-07T00:00:29;5.50;99.90
18067;DHT22;9158;51.528;7.192;2022-12-07T00:01:05;5.60;99.90
18067;DHT22;9158;51.528;7.192;2022-12-07T00:01:39;5.50;99.90
18067;DHT22;9158;51.528;7.192;2022-12-07T00:02:11;5.50;99.90
18067;DHT22;9158;51.528;7.192;2022-12-07T00:02:42;5.60;99.90
18067;DHT22;9158;51.528;7.192;2022-12-07T00:03:13;5.60;99.90
18067;DHT22;9158;51.528;7.192;2022-12-07T00:03:45;5.60;99.90
18067;DHT22;9158;51.528;7.192;2022-12-07T00:04:19;5.60;99.90
18067;DHT22;9158;51.528;7.192;2022-12-07T00:04:50;5.60;99.90
18067;DHT22;9158;51.528;7.192;2022-12-07T00:05:21;5.60;99.90
18067;DHT22;9158;51.528;7.192;2022-12-07T00:05:57;5.60;99.90
18067;DHT22;9158;51.528;7.192;2022-12-07T00:06:28;5.60;99.90
18067;DHT22;9158;51.528;7.192;2022-12-07T00:06:59;5.60;99.90
18067;DHT22;9158;51.528;7.192;2022-12-07T00:07:30;5.50;99.90
18067;DHT22;9158;51.528;7.192;2022-12-07T00:08:01;5.50;99.90
18067;DHT22;9158;51.528;7.192;2022-12-07T00:08:34;5.60;99.90
18067;DHT22;9158;51.528;7.192;2022-12-07T00:09:09;5.60;99.90
18067;DHT22;9158;51.528;7.192;2022-12-07T00:09:40;5.60;99.90
18067;DHT22;9158;51.528;7.192;2022-12-07T00:10:12;5.60;99.90
18067;DHT22;9158;51.528;7.192;2022-12-07T00:10:43;5.60;99.90
18067;DHT22;9158;51.528;7.192;2022-12-07T00:11:16;5.60;99.90
18067;DHT22;9158;51.528;7.192;2022-12-07T00:11:49;5.60;99.90
18067;DHT22;9158;51.528;7.192;2022-12-07T00:12:21;5.60;99.90
18067;DHT22;9158;51.528;7.192;2022-12-07T00:12:51;5.60;99.90
18067;DHT22;9158;51.528;7.192;2022-12-07T00:13:23;5.60;99.90
18067;DHT22;9158;51.528;7.192;2022-12-07T00:13:57;5.60;99.90
18067;DHT22;9158;51.528;7.192;2022-12-07T00:14:29;5.60;99.90
18067;DHT22;9158;51.528;7.192;2022-12-07T00:15:01;5.60;99.90
18067;DHT22;9158;51.528;7.192;2022-12-07T00:15:34;5.60;99.90
18067;DHT22;9158;51.528;7.192;2022-12-07T00:16:07;5.60;99.90
18067;DHT22;9158;51.528;7.192;2022-12-07T00:16:39;5.60;99.90
18067;DHT22;9158;51.528;7.192;2022-12-07T00:17:11;5.70;99.90
18067;DHT22;9158;51.528;7.192;2022-12-07T00:17:42;5.60;99.90
18067;DHT22;9158;51.528;7.192;2022-12-07T00:18:12;5.70;99.90
18067;DHT22;9158;51.528;7.192;2022-12-07T00:18:45;5.60;99.90
18067;DHT22;9158;51.528;7.192;2022-12-07T00:19:16;5.70;99.90
18067;DHT22;9158;51.528;7.192;2022-12-07T00:19:47;5.60;99.90
18067;DHT22;9158;51.528;7.192;2022-12-07T00:20:19;5.70;99.90
18067;DHT22;9158;51.528;7.192;2022-12-07T00:20:50;5.70;99.90
18067;DHT22;9158;51.528;7.192;2022-12-07T00:21:22;5.70;99.90
18067;DHT22;9158;51.528;7.192;2022-12-07T00:21:55;5.70;99.90
18067;DHT22;9158;51.528;7.192;2022-12-07T00:22:25;5.70;99.90
18067;DHT22;9158;51.528;7.192;2022-12-07T00:22:56;5.70;99.90
18067;DHT22;9158;51.528;7.192;2022-12-07T00:23:29;5.70;99.90
18067;DHT22;9158;51.528;7.192;2022-12-07T00:24:00;5.70;99.90
18067;DHT22;9158;51.528;7.192;2022-12-07T00:24:31;5.70;99.90
18067;DHT22;9158;51.528;7.192;2022-12-07T00:25:04;5.70;99.90
18067;DHT22;9158;51.528;7.192;2022-12-07T00:25:35;5.70;99.90
18067;DHT22;9158;51.528;7.192;2022-12-07T00:26:07;5.70;99.90
18067;DHT22;9158;51.528;7.192;2022-12-07T00:26:40;5.70;99.90
18067;DHT22;9158;51.528;7.192;2022-12-07T00:27:12;5.60;99.90
18067;DHT22;9158;51.528;7.192;2022-12-07T00:27:43;5.60;99.90
18067;DHT22;9158;51.528;7.192;2022-12-07T00:28:15;5.60;99.90
18067;DHT22;9158;51.528;7.192;2022-12-07T00:28:46;5.60;99.90
18067;DHT22;9158;51.528;7.192;2022-12-07T00:29:18;5.60;99.90
18067;DHT22;9158;51.528;7.192;2022-12-07T00:29:52;5.60;99.90
18067;DHT22;9158;51.528;7.192;2022-12-07T00:30:23;5.60;99.90
18067;DHT22;9158;51.528;7.192;2022-12-07T00:31:00;5.60;99.90
18067;DHT22;9158;51.528;7.192;2022-12-07T00:31:32;5.60;99.90
18067;DHT22;9158;51.528;7.192;2022-12-07T00:32:05;5.60;99.90
18067;DHT22;9158;51.528;7.192;2022-12-07T00:32:36;5.60;99.90
18067;DHT22;9158;51.528;7.192;2022-12-07T00:33:07;5.60;99.90
18067;DHT22;9158;51.528;7.192;2022-12-07T00:33:39;5.70;99.90
18067;DHT22;9158;51.528;7.192;2022-12-07T00:34:13;5.70;99.90
18067;DHT22;9158;51.528;7.192;2022-12-07T00:34:44;5.60;99.90
18067;DHT22;9158;51.528;7.192;2022-12-07T00:35:16;5.60;99.90
18067;DHT22;9158;51.528;7.192;2022-12-07T00:35:47;5.60;99.90
18067;DHT22;9158;51.528;7.192;2022-12-07T00:36:25;5.60;99.90
18067;DHT22;9158;51.528;7.192;2022-12-07T00:36:57;5.60;99.90
18067;DHT22;9158;51.528;7.192;2022-12-07T00:37:28;5.60;99.90
18067;DHT22;9158;51.528;7.192;2022-12-07T00:37:59;5.60;99.90
18067;DHT22;9158;51.528;7.192;2022-12-07T00:38:32;5.60;99.90
18067;DHT22;9158;51.528;7.192;2022-12-07T00:39:03;5.60;99.90
18067;DHT22;9158;51.528;7.192;2022-12-07T00:39:34;5.60;99.90
18067;DHT22;9158;51.528;7.192;2022-12-07T00:40:06;5.70;99.90
18067;DHT22;9158;51.528;7.192;2022-12-07T00:40:37;5.70;99.90
18067;DHT22;9158;51.528;7.192;2022-12-07T00:41:11;5.70;99.90
18067;DHT22;9158;51.528;7.192;2022-12-07T00:41:43;5.70;99.90
18067;DHT22;9158;51.528;7.192;2022-12-07T00:42:14;5.70;99.90
18067;DHT22;9158;51.528;7.192;2022-12-07T00:42:46;5.70;99.90
18067;DHT22;9158;51.528;7.192;2022-12-07T00:43:17;5.70;99.90
18067;DHT22;9158;51.528;7.192;2022-12-07T00:43:49;5.70;99.90
18067;DHT22;9158;51.528;7.192;2022-12-07T00:44:21;5.70;99.90
18067;DHT22;9158;51.528;7.192;2022-12-07T00:44:53;5.70;99.90
18067;DHT22;9158;51.528;7.192;2022-12-07T00:45:25;5.70;99.90
18067;DHT22;9158;51.528;7.192;2022-12-07T00:45:56;5.70;99.90
18067;DHT22;9158;51.528;7.192;2022-12-07T00:46:27;5.70;99.90
18067;DHT22;9158;51.528;7.192;2022-12-07T00:46:59;5.70;99.90
18067;DHT22;9158;51.528;7.192;2022-12-07T00:47:30;5.70;99.90
18067;DHT22;9158;51.528;7.192;2022-12-07T00:48:01;5.70;99.90
18067;DHT22;9158;51.528;7.192;2022-12-07T00:48:33;5.70;99.90
18067;DHT22;9158;51.528;7.192;2022-12-07T00:49:04;5.70;99.90
18067;DHT22;9158;51.528;7.192;2022-12-07T00:49:35;5.60;99.90
18067;DHT22;9158;51.528;7.192;2022-12-07T00:50:08;5.70;99.90
18067;DHT22;9158;51.528;7.192;2022-12-07T00:50:39;5.70;99.90
18067;DHT22;9158;51.528;7.192;2022-12-07T00:51:11;5.60;99.90
18067;DHT22;9158;51.528;7.192;2022-12-07T00:51:42;5.60;99.90
18067;DHT22;9158;51.528;7.192;2022-12-07T00:52:14;5.70;99.90
18067;DHT22;9158;51.528;7.192;2022-12-07T00:52:44;5.70;99.90
18067;DHT22;9158;51.528;7.192;2022-12-07T00:53:15;5.70;99.90
18067;DHT22;9158;51.528;7.192;2022-12-07T00:53:47;5.70;99.90
18067;DHT22;9158;51.528;7.192;2022-12-07T00:54:18;5.70;99.90
18067;DHT22;9158;51.528;7.192;2022-12-07T00:54:50;5.70;99.90
18067;DHT22;9158;51.528;7.192;2022-12-07T00:55:21;5.70;99.90
18067;DHT22;9158;51.528;7.192;2022-12-07T00:55:52;5.70;99.90
18067;DHT22;9158;51.528;7.192;2022-12-07T00:56:27;5.70;99.90
18067;DHT22;9158;51.528;7.192;2022-12-07T00:56:59;5.70;99.90
18067;DHT22;9158;51.528;7.192;2022-12-07T00:57:31;5.70;99.90
18067;DHT22;9158;51.528;7.192;2022-12-07T00:58:02;5.70;99.90
18067;DHT22;9158;51.528;7.192;2022-12-07T00:58:33;5.70;99.90
18067;DHT22;9158;51.528;7.192;2022-12-07T00:59:05;5.60;99.90
18067;DHT22;9158;51.528;7.192;2022-12-07T00:59:36;5.70;99.90
18067;DHT22;9158;51.528;7.192;2022-12-07T01:00:09;5.70;99.90
18067;DHT22;9158;51.528;7.192;2022-12-07T01:00:42;5.70;99.90
18067;DHT22;9158;51.528;7.192;2022-12-07T01:01:13;5.70;99.90
18067;DHT22;9158;51.528;7.192;2022-12-07T01:01:44;5.70;99.90
18067;DHT22;9158;51.528;7.192;2022-12-07T01:02:16;5.70;99.90
18067;DHT22;9158;51.528;7.192;2022-12-07T01:02:46;5.70;99.90
18067;DHT22;9158;51.528;7.192;2022-12-07T01:03:18;5.70;99.90
18067;DHT22;9158;51.528;7.192;2022-12-07T01:03:50;5.70;99.90
18067;DHT22;9158;51.528;7.192;2022-12-07T01:04:20;5.70;99.90
18067;DHT22;9158;51.528;7.192;2022-12-07T01:04:51;5.70;99.90
18067;DHT22;9158;51.528;7.192;2022-12-07T01:05:23;5.70;99.90
18067;DHT22;9158;51.528;7.192;2022-12-07T01:05:55;5.70;99.90
18067;DHT22;9158;51.528;7.192;2022-12-07T01:06:27;5.70;99.90
18067;DHT22;9158;51.528;7.192;2022-12-07T01:06:59;5.70;99.90
18067;DHT22;9158;51.528;7.192;2022-12-07T01:07:30;5.70;99.90
18067;DHT22;9158;51.528;7.192;2022-12-07T01:08:01;5.70;99.90
18067;DHT22;9158;51.528;7.192;2022-12-07T01:08:34;5.70;99.90
18067;DHT22;9158;51.528;7.192;2022-12-07T01:09:05;5.70;99.90
18067;DHT22;9158;51.528;7.192;2022-12-07T01:09:36;5.70;99.90
18067;DHT22;9158;51.528;7.192;2022-12-07T01:10:09;5.70;99.90
18067;DHT22;9158;51.528;7.192;2022-12-07T01:10:40;6.20;99.90
18067;DHT22;9158;51.528;7.192;2022-12-07T01:11:13;5.70;99.90
18067;DHT22;9158;51.528;7.192;2022-12-07T01:11:45;5.60;99.90
18067;DHT22;9158;51.528;7.192;2022-12-07T01:12:16;5.70;99.90
18067;DHT22;9158;51.528;7.192;2022-12-07T01:12:47;5.60;99.90
18067;DHT22;9158;51.528;7.192;2022-12-07T01:13:19;5.70;99.90
18067;DHT22;9158;51.528;7.192;2022-12-07T01:13:50;5.60;99.90
18067;DHT22;9158;51.528;7.192;2022-12-07T01:14:21;5.60;99.90
18067;DHT22;9158;51.528;7.192;2022-12-07T01:14:53;5.60;99.90
18067;DHT22;9158;51.528;7.192;2022-12-07T01:15:26;5.60;99.90
18067;DHT22;9158;51.528;7.192;2022-12-07T01:15:58;5.60;99.90
18067;DHT22;9158;51.528;7.192;2022-12-07T01:16:31;5.70;99.90
18067;DHT22;9158;51.528;7.192;2022-12-07T01:17:02;5.70;99.90
18067;DHT22;9158;51.528;7.192;2022-12-07T01:17:34;5.70;99.90
18067;DHT22;9158;51.528;7.192;2022-12-07T01:18:05;5.70;99.90
18067;DHT22;9158;51.528;7.192;2022-12-07T01:18:37;5.60;99.90
18067;DHT22;9158;51.528;7.192;2022-12-07T01:19:08;5.60;99.90
18067;DHT22;9158;51.528;7.192;2022-12-07T01:19:39;5.60;99.90
18067;DHT22;9158;51.528;7.192;2022-12-07T01:20:11;5.70;99.90
18067;DHT22;9158;51.528;7.192;2022-12-07T01:20:43;5.60;99.90
18067;DHT22;9158;51.528;7.192;2022-12-07T01:21:16;5.60;99.90
18067;DHT22;9158;51.528;7.192;2022-12-07T01:21:47;5.60;99.90
18067;DHT22;9158;51.528;7.192;2022-12-07T01:22:19;5.70;99.90
18067;DHT22;9158;51.528;7.192;2022-12-07T01:22:50;5.70;99.90
18067;DHT22;9158;51.528;7.192;2022-12-07T01:23:21;5.70;99.90
18067;DHT22;9158;51.528;7.192;2022-12-07T01:23:53;5.70;99.90
18067;DHT22;9158;51.528;7.192;2022-12-07T01:24:24;5.70;99.90
18067;DHT22;9158;51.528;7.192;2022-12-07T01:24:55;5.70;99.90
18067;DHT22;9158;51.528;7.192;2022-12-07T01:25:27;5.70;99.90
18067;DHT22;9158;51.528;7.192;2022-12-07T01:25:59;5.70;99.90
18067;DHT22;9158;51.528;7.192;2022-12-07T01:26:29;5.70;99.90
18067;DHT22;9158;51.528;7.192;2022-12-07T01:27:01;5.70;99.90
18067;DHT22;9158;51.528;7.192;2022-12-07T01:27:32;5.70;99.90
18067;DHT22;9158;51.528;7.192;2022-12-07T01:28:03;5.60;99.90
18067;DHT22;9158;51.528;7.192;2022-12-07T01:28:35;5.60;99.90
18067;DHT22;9158;51.528;7.192;2022-12-07T01:29:06;5.60;99.90
18067;DHT22;9158;51.528;7.192;2022-12-07T01:29:37;5.60;99.90
18067;DHT22;9158;51.528;7.192;2022-12-07T01:30:11;5.60;99.90
18067;DHT22;9158;51.528;7.192;2022-12-07T01:30:43;5.60;99.90
18067;DHT22;9158;51.528;7.192;2022-12-07T01:31:15;5.60;99.90
18067;DHT22;9158;51.528;7.192;2022-12-07T01:31:48;5.60;99.90
18067;DHT22;9158;51.528;7.192;2022-12-07T01:32:20;5.60;99.90
18067;DHT22;9158;51.528;7.192;2022-12-07T01:32:51;5.60;99.90
18067;DHT22;9158;51.528;7.192;2022-12-07T01:33:22;5.60;99.90
18067;DHT22;9158;51.528;7.192;2022-12-07T01:33:55;5.60;99.90
18067;DHT22;9158;51.528;7.192;2022-12-07T01:34:26;6.00;99.90
18067;DHT22;9158;51.528;7.192;2022-12-07T01:34:57;5.60;99.90
18067;DHT22;9158;51.528;7.192;2022-12-07T01:35:29;5.60;99.90
18067;DHT22;9158;51.528;7.192;2022-12-07T01:36:04;5.60;99.90
18067;DHT22;9158;51.528;7.192;2022-12-07T01:36:35;5.60;99.90
18067;DHT22;9158;51.528;7.192;2022-12-07T01:37:07;5.60;99.90
18067;DHT22;9158;51.528;7.192;2022-12-07T01:37:39;5.60;99.90
18067;DHT22;9158;51.528;7.192;2022-12-07T01:38:10;5.60;99.90
18067;DHT22;9158;51.528;7.192;2022-12-07T01:38:41;5.60;99.90
18067;DHT22;9158;51.528;7.192;2022-12-07T01:39:13;5.60;99.90
18067;DHT22;9158;51.528;7.192;2022-12-07T01:39:44;5.60;99.90
18067;DHT22;9158;51.528;7.192;2022-12-07T01:40:15;5.70;99.90
18067;DHT22;9158;51.528;7.192;2022-12-07T01:40:54;5.60;99.90
18067;DHT22;9158;51.528;7.192;2022-12-07T01:41:26;5.70;99.90
18067;DHT22;9158;51.528;7.192;2022-12-07T01:41:57;5.60;99.90
18067;DHT22;9158;51.528;7.192;2022-12-07T01:42:29;5.60;99.90
18067;DHT22;9158;51.528;7.192;2022-12-07T01:43:00;5.70;99.90
18067;DHT22;9158;51.528;7.192;2022-12-07T01:43:33;6.20;99.90
18067;DHT22;9158;51.528;7.192;2022-12-07T01:44:16;5.70;99.90
18067;DHT22;9158;51.528;7.192;2022-12-07T01:45:54;5.70;99.90
18067;DHT22;9158;51.528;7.192;2022-12-07T01:46:26;5.70;99.90
18067;DHT22;9158;51.528;7.192;2022-12-07T01:46:59;5.70;99.90
18067;DHT22;9158;51.528;7.192;2022-12-07T01:47:30;5.60;99.90
18067;DHT22;9158;51.528;7.192;2022-12-07T01:48:02;5.70;99.90
18067;DHT22;9158;51.528;7.192;2022-12-07T01:48:37;5.70;99.90
18067;DHT22;9158;51.528;7.192;2022-12-07T01:49:14;5.60;99.90
18067;DHT22;9158;51.528;7.192;2022-12-07T01:49:48;5.70;99.90
18067;DHT22;9158;51.528;7.192;2022-12-07T01:50:20;5.70;99.90
18067;DHT22;9158;51.528;7.192;2022-12-07T01:50:53;5.70;99.90
18067;DHT22;9158;51.528;7.192;2022-12-07T01:51:27;5.70;99.90
18067;DHT22;9158;51.528;7.192;2022-12-07T01:52:06;5.70;99.90
18067;DHT22;9158;51.528;7.192;2022-12-07T01:52:39;5.60;99.90
18067;DHT22;9158;51.528;7.192;2022-12-07T01:53:13;5.70;99.90
18067;DHT22;9158;51.528;7.192;2022-12-07T01:53:45;5.70;99.90
18067;DHT22;9158;51.528;7.192;2022-12-07T01:54:17;5.70;99.90
18067;DHT22;9158;51.528;7.192;2022-12-07T01:54:52;5.60;99.90
18067;DHT22;9158;51.528;7.192;2022-12-07T01:55:25;5.60;99.90
18067;DHT22;9158;51.528;7.192;2022-12-07T01:55:58;5.60;99.90
18067;DHT22;9158;51.528;7.192;2022-12-07T01:56:31;5.60;99.90
18067;DHT22;9158;51.528;7.192;2022-12-07T01:57:03;5.60;99.90
18067;DHT22;9158;51.528;7.192;2022-12-07T01:57:39;5.60;99.90
18067;DHT22;9158;51.528;7.192;2022-12-07T01:58:12;5.70;99.90
18067;DHT22;9158;51.528;7.192;2022-12-07T01:58:44;5.60;99.90
18067;DHT22;9158;51.528;7.192;2022-12-07T01:59:18;5.70;99.90
18067;DHT22;9158;51.528;7.192;2022-12-07T01:59:51;5.70;99.90
18067;DHT22;9158;51.528;7.192;2022-12-07T02:00:24;5.60;99.90
18067;DHT22;9158;51.528;7.192;2022-12-07T02:00:56;5.70;99.90
18067;DHT22;9158;51.528;7.192;2022-12-07T02:01:27;5.60;99.90
18067;DHT22;9158;51.528;7.192;2022-12-07T02:02:02;5.60;99.90
18067;DHT22;9158;51.528;7.192;2022-12-07T02:02:37;5.60;99.90
18067;DHT22;9158;51.528;7.192;2022-12-07T02:03:12;5.60;99.90
18067;DHT22;9158;51.528;7.192;2022-12-07T02:03:46;5.60;99.90
18067;DHT22;9158;51.528;7.192;2022-12-07T02:04:18;5.60;99.90
18067;DHT22;9158;51.528;7.192;2022-12-07T02:04:51;5.60;99.90
18067;DHT22;9158;51.528;7.192;2022-12-07T02:05:25;5.60;99.90
18067;DHT22;9158;51.528;7.192;2022-12-07T02:05:57;5.60;99.90
18067;DHT22;9158;51.528;7.192;2022-12-07T02:06:30;5.50;99.90
18067;DHT22;9158;51.528;7.192;2022-12-07T02:07:02;5.50;99.90
18067;DHT22;9158;51.528;7.192;2022-12-07T02:07:36;5.50;99.90
18067;DHT22;9158;51.528;7.192;2022-12-07T02:08:07;5.50;99.90
18067;DHT22;9158;51.528;7.192;2022-12-07T02:08:40;5.50;99.90
18067;DHT22;9158;51.528;7.192;2022-12-07T02:09:12;5.60;99.90
18067;DHT22;9158;51.528;7.192;2022-12-07T02:09:43;5.60;99.90
18067;DHT22;9158;51.528;7.192;2022-12-07T02:10:16;5.60;99.90
18067;DHT22;9158;51.528;7.192;2022-12-07T02:10:47;5.60;99.90
18067;DHT22;9158;51.528;7.192;2022-12-07T02:11:18;5.60;99.90
18067;DHT22;9158;51.528;7.192;2022-12-07T02:11:51;5.60;99.90
18067;DHT22;9158;51.528;7.192;2022-12-07T02:12:23;5.60;99.90
18067;DHT22;9158;51.528;7.192;2022-12-07T02:12:57;5.60;99.90
18067;DHT22;9158;51.528;7.192;2022-12-07T02:13:31;5.60;99.90
18067;DHT22;9158;51.528;7.192;2022-12-07T02:14:03;5.60;99.90
18067;DHT22;9158;51.528;7.192;2022-12-07T02:14:34;5.60;99.90
18067;DHT22;9158;51.528;7.192;2022-12-07T02:15:07;5.60;99.90
18067;DHT22;9158;51.528;7.192;2022-12-07T02:15:57;5.60;99.90
18067;DHT22;9158;51.528;7.192;2022-12-07T02:16:34;5.60;99.90
18067;DHT22;9158;51.528;7.192;2022-12-07T02:17:15;5.60;99.90
18067;DHT22;9158;51.528;7.192;2022-12-07T02:17:54;5.50;99.90
18067;DHT22;9158;51.528;7.192;2022-12-07T02:18:37;5.60;99.90
18067;DHT22;9158;51.528;7.192;2022-12-07T02:19:35;5.60;99.90
18067;DHT22;9158;51.528;7.192;2022-12-07T02:20:21;5.50;99.90
18067;DHT22;9158;51.528;7.192;2022-12-07T02:21:04;5.50;99.90
18067;DHT22;9158;51.528;7.192;2022-12-07T02:21:43;5.50;99.90
18067;DHT22;9158;51.528;7.192;2022-12-07T02:22:30;5.50;99.90
18067;DHT22;9158;51.528;7.192;2022-12-07T02:23:40;5.40;99.90
18067;DHT22;9158;51.528;7.192;2022-12-07T02:24:31;5.40;99.90
18067;DHT22;9158;51.528;7.192;2022-12-07T02:25:14;5.40;99.90
18067;DHT22;9158;51.528;7.192;2022-12-07T02:27:10;5.40;99.90
18067;DHT22;9158;51.528;7.192;2022-12-07T02:27:52;5.40;99.90
18067;DHT22;9158;51.528;7.192;2022-12-07T02:28:30;5.40;99.90
18067;DHT22;9158;51.528;7.192;2022-12-07T02:29:13;5.40;99.90
18067;DHT22;9158;51.528;7.192;2022-12-07T02:29:49;5.40;99.90
18067;DHT22;9158;51.528;7.192;2022-12-07T02:30:22;5.40;99.90
18067;DHT22;9158;51.528;7.192;2022-12-07T02:31:01;5.30;99.90
18067;DHT22;9158;51.528;7.192;2022-12-07T02:31:32;5.40;99.90
18067;DHT22;9158;51.528;7.192;2022-12-07T02:32:08;5.40;99.90
18067;DHT22;9158;51.528;7.192;2022-12-07T02:32:47;5.40;99.90
18067;DHT22;9158;51.528;7.192;2022-12-07T02:33:26;5.40;99.90
18067;DHT22;9158;51.528;7.192;2022-12-07T02:34:07;5.40;99.90
18067;DHT22;9158;51.528;7.192;2022-12-07T02:34:45;5.40;99.90
18067;DHT22;9158;51.528;7.192;2022-12-07T02:35:21;5.40;99.90
18067;DHT22;9158;51.528;7.192;2022-12-07T02:35:57;5.40;99.90
18067;DHT22;9158;51.528;7.192;2022-12-07T02:36:32;5.40;99.90
18067;DHT22;9158;51.528;7.192;2022-12-07T02:37:10;5.40;99.90
18067;DHT22;9158;51.528;7.192;2022-12-07T02:37:51;5.40;99.90
18067;DHT22;9158;51.528;7.192;2022-12-07T02:38:28;5.40;99.90
18067;DHT22;9158;51.528;7.192;2022-12-07T02:39:06;5.40;99.90
18067;DHT22;9158;51.528;7.192;2022-12-07T02:39:44;5.40;99.90
18067;DHT22;9158;51.528;7.192;2022-12-07T02:40:25;5.40;99.90
18067;DHT22;9158;51.528;7.192;2022-12-07T02:41:03;5.40;99.90
18067;DHT22;9158;51.528;7.192;2022-12-07T02:41:39;5.40;99.90
18067;DHT22;9158;51.528;7.192;2022-12-07T02:42:15;5.40;99.90
18067;DHT22;9158;51.528;7.192;2022-12-07T02:42:52;5.40;99.90
18067;DHT22;9158;51.528;7.192;2022-12-07T02:43:26;5.40;99.90
18067;DHT22;9158;51.528;7.192;2022-12-07T02:44:00;5.40;99.90
18067;DHT22;9158;51.528;7.192;2022-12-07T02:44:35;5.40;99.90
18067;DHT22;9158;51.528;7.192;2022-12-07T02:45:07;5.40;99.90
18067;DHT22;9158;51.528;7.192;2022-12-07T02:45:40;5.40;99.90
18067;DHT22;9158;51.528;7.192;2022-12-07T02:46:15;5.40;99.90
18067;DHT22;9158;51.528;7.192;2022-12-07T02:46:52;5.40;99.90
18067;DHT22;9158;51.528;7.192;2022-12-07T02:47:25;5.40;99.90
18067;DHT22;9158;51.528;7.192;2022-12-07T02:48:37;5.30;99.90
18067;DHT22;9158;51.528;7.192;2022-12-07T02:49:10;5.30;99.90
18067;DHT22;9158;51.528;7.192;2022-12-07T02:49:42;5.30;99.90
18067;DHT22;9158;51.528;7.192;2022-12-07T02:50:13;5.30;99.90
18067;DHT22;9158;51.528;7.192;2022-12-07T02:50:48;5.30;99.90
18067;DHT22;9158;51.528;7.192;2022-12-07T02:51:19;5.20;99.90
18067;DHT22;9158;51.528;7.192;2022-12-07T02:51:50;5.20;99.90
18067;DHT22;9158;51.528;7.192;2022-12-07T02:52:23;5.20;99.90
18067;DHT22;9158;51.528;7.192;2022-12-07T02:52:54;5.20;99.90
18067;DHT22;9158;51.528;7.192;2022-12-07T02:53:30;5.20;99.90
18067;DHT22;9158;51.528;7.192;2022-12-07T02:54:07;5.20;99.90
18067;DHT22;9158;51.528;7.192;2022-12-07T02:54:39;5.20;99.90
18067;DHT22;9158;51.528;7.192;2022-12-07T02:55:10;5.20;99.90
18067;DHT22;9158;51.528;7.192;2022-12-07T02:55:43;5.20;99.90
18067;DHT22;9158;51.528;7.192;2022-12-07T02:56:22;5.20;99.90
18067;DHT22;9158;51.528;7.192;2022-12-07T02:57:03;5.10;99.90
18067;DHT22;9158;51.528;7.192;2022-12-07T02:57:48;5.10;99.90
18067;DHT22;9158;51.528;7.192;2022-12-07T02:58:30;5.10;99.90
18067;DHT22;9158;51.528;7.192;2022-12-07T02:59:13;5.10;99.90
18067;DHT22;9158;51.528;7.192;2022-12-07T02:59:59;5.10;99.90
18067;DHT22;9158;51.528;7.192;2022-12-07T03:00:37;5.10;99.90
18067;DHT22;9158;51.528;7.192;2022-12-07T03:01:19;5.10;99.90
18067;DHT22;9158;51.528;7.192;2022-12-07T03:02:03;5.00;99.90
18067;DHT22;9158;51.528;7.192;2022-12-07T03:02:46;5.00;99.90
18067;DHT22;9158;51.528;7.192;2022-12-07T03:03:22;5.00;99.90
18067;DHT22;9158;51.528;7.192;2022-12-07T03:04:02;5.00;99.90
18067;DHT22;9158;51.528;7.192;2022-12-07T03:04:45;5.00;99.90
18067;DHT22;9158;51.528;7.192;2022-12-07T03:05:38;5.00;99.90
18067;DHT22;9158;51.528;7.192;2022-12-07T03:06:17;5.00;99.90
18067;DHT22;9158;51.528;7.192;2022-12-07T03:06:54;4.90;99.90
18067;DHT22;9158;51.528;7.192;2022-12-07T03:07:33;4.90;99.90
18067;DHT22;9158;51.528;7.192;2022-12-07T03:08:13;4.90;99.90
18067;DHT22;9158;51.528;7.192;2022-12-07T03:08:52;4.90;99.90
18067;DHT22;9158;51.528;7.192;2022-12-07T03:09:28;4.90;99.90
18067;DHT22;9158;51.528;7.192;2022-12-07T03:10:08;4.90;99.90
18067;DHT22;9158;51.528;7.192;2022-12-07T03:10:44;4.90;99.90
18067;DHT22;9158;51.528;7.192;2022-12-07T03:11:24;4.80;99.90
18067;DHT22;9158;51.528;7.192;2022-12-07T03:12:01;4.80;99.90
18067;DHT22;9158;51.528;7.192;2022-12-07T03:12:42;4.80;99.90
18067;DHT22;9158;51.528;7.192;2022-12-07T03:13:22;4.80;99.90
18067;DHT22;9158;51.528;7.192;2022-12-07T03:13:59;4.80;99.90
18067;DHT22;9158;51.528;7.192;2022-12-07T03:14:39;4.80;99.90
18067;DHT22;9158;51.528;7.192;2022-12-07T03:15:14;4.70;99.90
18067;DHT22;9158;51.528;7.192;2022-12-07T03:15:54;4.70;99.90
18067;DHT22;9158;51.528;7.192;2022-12-07T03:16:33;4.70;99.90
18067;DHT22;9158;51.528;7.192;2022-12-07T03:17:08;4.70;99.90
18067;DHT22;9158;51.528;7.192;2022-12-07T03:17:44;4.70;99.90
18067;DHT22;9158;51.528;7.192;2022-12-07T03:18:20;4.70;99.90
18067;DHT22;9158;51.528;7.192;2022-12-07T03:18:55;4.70;99.90
18067;DHT22;9158;51.528;7.192;2022-12-07T03:19:29;4.70;99.90
18067;DHT22;9158;51.528;7.192;2022-12-07T03:20:04;4.70;99.90
18067;DHT22;9158;51.528;7.192;2022-12-07T03:20:37;4.70;99.90
18067;DHT22;9158;51.528;7.192;2022-12-07T03:21:14;4.70;99.90
18067;DHT22;9158;51.528;7.192;2022-12-07T03:21:49;4.60;99.90
18067;DHT22;9158;51.528;7.192;2022-12-07T03:22:22;6.70;99.90
18067;DHT22;9158;51.528;7.192;2022-12-07T03:22:56;4.60;99.90
18067;DHT22;9158;51.528;7.192;2022-12-07T03:23:28;4.60;99.90
18067;DHT22;9158;51.528;7.192;2022-12-07T03:24:04;4.60;99.90
18067;DHT22;9158;51.528;7.192;2022-12-07T03:24:38;4.60;99.90
18067;DHT22;9158;51.528;7.192;2022-12-07T03:25:13;4.60;99.90
18067;DHT22;9158;51.528;7.192;2022-12-07T03:25:48;4.60;99.90
18067;DHT22;9158;51.528;7.192;2022-12-07T03:26:21;4.60;99.90
18067;DHT22;9158;51.528;7.192;2022-12-07T03:26:58;4.60;99.90
18067;DHT22;9158;51.528;7.192;2022-12-07T03:27:34;4.60;99.90
18067;DHT22;9158;51.528;7.192;2022-12-07T03:28:07;4.60;99.90
18067;DHT22;9158;51.528;7.192;2022-12-07T03:28:45;4.60;99.90
18067;DHT22;9158;51.528;7.192;2022-12-07T03:29:22;4.60;99.90
18067;DHT22;9158;51.528;7.192;2022-12-07T03:29:58;4.60;99.90
18067;DHT22;9158;51.528;7.192;2022-12-07T03:30:37;4.60;99.90
18067;DHT22;9158;51.528;7.192;2022-12-07T03:31:13;4.60;99.90
18067;DHT22;9158;51.528;7.192;2022-12-07T03:31:49;4.60;99.90
18067;DHT22;9158;51.528;7.192;2022-12-07T03:32:24;4.60;99.90
18067;DHT22;9158;51.528;7.192;2022-12-07T03:33:00;4.50;99.90
18067;DHT22;9158;51.528;7.192;2022-12-07T03:33:38;4.50;99.90
18067;DHT22;9158;51.528;7.192;2022-12-07T03:34:14;4.50;99.90
18067;DHT22;9158;51.528;7.192;2022-12-07T03:34:49;4.50;99.90
18067;DHT22;9158;51.528;7.192;2022-12-07T03:35:26;4.50;99.90
18067;DHT22;9158;51.528;7.192;2022-12-07T03:36:01;4.50;99.90
18067;DHT22;9158;51.528;7.192;2022-12-07T03:36:39;4.50;99.90
18067;DHT22;9158;51.528;7.192;2022-12-07T03:37:14;4.50;99.90
18067;DHT22;9158;51.528;7.192;2022-12-07T03:37:51;4.50;99.90
18067;DHT22;9158;51.528;7.192;2022-12-07T03:38:26;4.40;99.90
18067;DHT22;9158;51.528;7.192;2022-12-07T03:39:04;4.50;99.90
18067;DHT22;9158;51.528;7.192;2022-12-07T03:39:45;4.40;99.90
18067;DHT22;9158;51.528;7.192;2022-12-07T03:40:20;4.40;99.90
18067;DHT22;9158;51.528;7.192;2022-12-07T03:40:59;4.40;99.90
18067;DHT22;9158;51.528;7.192;2022-12-07T03:41:32;4.40;99.90
18067;DHT22;9158;51.528;7.192;2022-12-07T03:42:06;4.40;99.90
18067;DHT22;9158;51.528;7.192;2022-12-07T03:42:39;4.40;99.90
18067;DHT22;9158;51.528;7.192;2022-12-07T03:43:10;4.40;99.90
18067;DHT22;9158;51.528;7.192;2022-12-07T03:43:42;4.40;99.90
18067;DHT22;9158;51.528;7.192;2022-12-07T03:44:15;4.40;99.90
18067;DHT22;9158;51.528;7.192;2022-12-07T03:44:46;4.40;99.90
18067;DHT22;9158;51.528;7.192;2022-12-07T03:45:18;4.40;99.90
18067;DHT22;9158;51.528;7.192;2022-12-07T03:45:59;4.40;99.90